McCook Municipal, NE

3:48 PM CST en Noviembre 27, 2014 (GMT -0600)
McCook Municipal | Change Station
CLOSE
Current Station
Aeropuerto
Location: McCook,
Altura: 2579 ft
Estaciones meteorológicas cercanas

Alt 2579 ft 40.20 °N, 100.59 °W | Updated 55 minutes ago

Clear
Despejado
53 ° F
Sensación térmica 53 ° F
N
10
Viento Variable Viento desde SE

Hoy
Alta -- | Baja -- ° F
--% Posibilidad de precipitaciones
Ayer
Alta -- | Baja -- ° F
Precip. -- pul
7:41 AM 5:18 PM
Creciente, 33% visible
Presión 30.13 pul
Visibilidad 10.0 Millas
Nubes Despejado
Punto de rocío 26 ° F
Humedad 35%
Precipitaciones 0.00 pul
Espesor de la nieve No disponible.
UV 2 de una escala de 12
Polen .10 de una escala de 12
Calidad del aire No disponible.
Flu Activity No disponible.
METAR KMCK 272053Z AUTO 13009KT 10SM CLR 12/M03 A3008 RMK AO2 SLP201 T01171033 56041

More Conditions Fewer Conditions

Presión 30.13 pul
Visibilidad 10.0 Millas
Nubes Despejado
Punto de rocío 26 ° F
Humedad 35%
Precipitaciones 0.00 pul
Espesor de la nieve No disponible.
UV 2 de una escala de 12
Polen .10 de una escala de 12
Calidad del aire No disponible.
Flu Activity No disponible.
METAR KMCK 272053Z AUTO 13009KT 10SM CLR 12/M03 A3008 RMK AO2 SLP201 T01171033 56041

More Conditions Fewer Conditions

10-Day Weather Forecast

Almanac

Astronomía

Nov. 27, 2014 Salida Puesta
Hora real
Crepúsculo civil
Crepúsculo náutico
Crepúsculo astronómico
Luna
Horas de luz
Horas de luz
Tomorrow will be .
, % of the Moon is Illuminated

Extremos de hoy

Máximos del estado Bajos del estado

Community

WunderPhotos

Upload Photos

1,774,115 ¡fotos cargadas!

WunderBlogs® & News

Nearby

Calidad del aire

  Calidad del aire Índice AQ Contaminante
Not available.

Grosos de nieve

Estación Profundido Altura

Actividad de terremotos

Ciudad Distance Mag. Tiempo y dato
Magnitud mínima muestra es 2,5.

Temperaturas de aguas costeras

Lugar Temperatura

Estaciones meteorológicas cercanas